Time;durP1;ratioP1;P1;durP2;ratioP2;P2;SDS_P1;SDS_P2;PMS_P1;PMS_P2;Temp;Humidity;BMP_temperature;BMP_pressure;BME280_temperature;BME280_humidity;BME280_pressure;Samples;Min_cycle;Max_cycle;Signal;HPM_P1;HPM_P2
2021/06/04 00:02:00;;;;;;;8.00;3.90;;;;;;;15.00;56.28;100957.12;126307;1099;104267;-78
2021/06/04 00:04:30;;;;;;;6.40;3.90;;;;;;;15.00;56.25;100959.77;126334;1099;104262;-79
2021/06/04 00:06:59;;;;;;;10.13;4.27;;;;;;;15.01;55.99;100961.58;126216;1098;104153;-77
2021/06/04 00:09:28;;;;;;;12.30;4.40;;;;;;;15.01;56.89;100968.62;126340;1099;104144;-78
2021/06/04 00:12:00;;;;;;;10.10;4.33;;;;;;;15.00;56.58;100967.70;126280;1099;104269;-79
2021/06/04 00:14:34;;;;;;;9.90;4.27;;;;;;;15.00;56.15;100957.12;126236;1099;104265;-78
2021/06/04 00:17:07;;;;;;;7.93;4.10;;;;;;;14.99;56.91;100955.36;126257;1099;104145;-78
2021/06/04 00:19:37;;;;;;;12.63;4.95;;;;;;;14.98;56.19;100957.97;126329;1098;104162;-78
2021/06/04 00:22:10;;;;;;;7.43;3.73;;;;;;;14.97;56.55;100961.45;126267;1099;104155;-79
2021/06/04 00:24:43;;;;;;;6.72;3.45;;;;;;;14.95;56.83;100958.77;126278;1099;104216;-78
2021/06/04 00:27:14;;;;;;;9.93;3.67;;;;;;;14.94;56.48;100951.69;126227;1099;104192;-78
2021/06/04 00:29:43;;;;;;;8.93;3.60;;;;;;;14.95;56.74;100957.89;126310;1097;104188;-78
2021/06/04 00:32:14;;;;;;;8.10;3.37;;;;;;;14.96;56.38;100957.93;126333;1099;104220;-79
2021/06/04 00:34:43;;;;;;;5.23;3.60;;;;;;;14.99;57.34;100955.36;126276;1099;104149;-78
2021/06/04 00:37:13;;;;;;;8.70;3.70;;;;;;;15.02;56.85;100959.81;126239;1099;104147;-79
2021/06/04 00:39:42;;;;;;;9.93;3.50;;;;;;;15.01;56.90;100958.93;126273;1099;104380;-77
2021/06/04 00:42:17;;;;;;;7.27;4.00;;;;;;;15.02;56.46;100957.17;126305;1099;104582;-79
2021/06/04 00:44:51;;;;;;;7.63;3.67;;;;;;;15.01;57.21;100958.93;126300;1097;104593;-79
2021/06/04 00:47:23;;;;;;;9.43;3.60;;;;;;;15.01;57.15;100958.93;126277;1099;104233;-77
2021/06/04 00:49:55;;;;;;;9.70;3.65;;;;;;;15.01;57.06;100952.77;126325;1099;104986;-79
2021/06/04 00:52:30;;;;;;;5.60;4.00;;;;;;;15.01;57.83;100958.05;126277;1099;104195;-79
2021/06/04 00:55:03;;;;;;;9.03;3.80;;;;;;;15.01;57.29;100963.33;126270;1099;104195;-78
2021/06/04 00:57:35;;;;;;;8.70;3.90;;;;;;;15.00;56.86;100959.77;126265;1099;104134;-77
2021/06/04 01:00:08;;;;;;;10.77;4.03;;;;;;;14.99;56.93;100955.36;126341;1099;104134;-78
2021/06/04 01:02:40;;;;;;;8.57;3.97;;;;;;;14.95;57.35;100957.89;126321;1098;104326;-78
2021/06/04 01:05:12;;;;;;;5.50;3.47;;;;;;;14.95;56.79;100963.18;126313;1099;104137;-79
2021/06/04 01:07:48;;;;;;;9.27;3.90;;;;;;;14.96;57.09;100959.66;126261;1099;104143;-77
2021/06/04 01:10:29;;;;;;;6.90;3.50;;;;;;;14.97;57.85;100962.34;126294;1099;104165;-78
2021/06/04 01:13:06;;;;;;;8.43;4.00;;;;;;;14.96;57.26;100964.94;126288;1099;104143;-78
2021/06/04 01:15:53;;;;;;;7.67;3.50;;;;;;;14.96;57.06;100960.58;126318;1097;104405;-78
2021/06/04 01:18:36;;;;;;;8.30;3.90;;;;;;;14.96;57.57;100962.30;126190;1099;104222;-79
2021/06/04 01:21:11;;;;;;;7.62;3.75;;;;;;;14.95;57.27;100971.98;126302;1099;104223;-78
2021/06/04 01:23:55;;;;;;;11.03;3.87;;;;;;;14.94;57.38;100969.30;126311;1099;104269;-78
2021/06/04 01:26:31;;;;;;;6.72;3.77;;;;;;;14.92;57.30;100972.79;126325;1099;101793;-78
2021/06/04 01:29:08;;;;;;;7.00;3.73;;;;;;;14.90;57.50;100968.34;126248;1099;104276;-78
2021/06/04 01:31:45;;;;;;;10.27;4.57;;;;;;;14.88;57.37;100970.03;126316;1099;104142;-77
2021/06/04 01:34:20;;;;;;;6.73;3.63;;;;;;;14.86;58.29;100974.39;126308;1099;104152;-78
2021/06/04 01:36:57;;;;;;;7.57;4.00;;;;;;;14.86;57.37;100972.63;126257;1099;104326;-78
2021/06/04 01:39:32;;;;;;;10.80;3.70;;;;;;;14.87;57.46;100973.55;126284;1099;105226;-79
2021/06/04 01:42:06;;;;;;;6.47;3.73;;;;;;;14.88;57.44;100967.39;126310;1099;104727;-78
2021/06/04 01:44:41;;;;;;;7.00;3.57;;;;;;;14.89;58.46;100974.47;126262;1097;104187;-78
2021/06/04 01:47:14;;;;;;;8.33;4.07;;;;;;;14.89;57.73;100977.11;126303;1099;104598;-79
2021/06/04 01:49:51;;;;;;;7.77;3.67;;;;;;;14.88;57.91;100981.52;126292;1097;104255;-79
2021/06/04 01:52:27;;;;;;;8.10;3.77;;;;;;;14.85;57.68;100978.80;126351;1099;104133;-78
2021/06/04 01:55:05;;;;;;;9.93;4.00;;;;;;;14.84;58.00;100976.11;126318;1099;104232;-79
2021/06/04 01:57:41;;;;;;;11.07;4.50;;;;;;;14.82;58.02;100976.07;126301;1099;104140;-78
2021/06/04 02:00:16;;;;;;;7.77;3.80;;;;;;;14.81;57.88;100995.41;126199;1099;104236;-77
2021/06/04 02:02:48;;;;;;;10.87;4.00;;;;;;;14.79;58.83;100978.63;126320;1099;104169;-77
2021/06/04 02:05:34;;;;;;;10.73;4.20;;;;;;;14.77;58.26;100985.60;126294;1099;104232;-77
2021/06/04 02:08:11;;;;;;;5.50;3.57;;;;;;;14.78;58.14;100976.83;126346;1099;104222;-78
2021/06/04 02:10:46;;;;;;;7.33;3.90;;;;;;;14.81;57.83;100981.31;126230;1098;109162;-77
2021/06/04 02:13:17;;;;;;;7.87;3.70;;;;;;;14.81;58.28;100981.31;126356;1099;104236;-78
2021/06/04 02:16:09;;;;;;;8.17;3.73;;;;;;;14.81;57.81;100981.31;126305;1099;104174;-77
2021/06/04 02:18:49;;;;;;;9.50;3.83;;;;;;;14.80;58.44;100979.52;126240;1099;104127;-78
2021/06/04 02:21:46;;;;;;;7.23;3.90;;;;;;;14.77;58.77;100977.67;126336;1099;104262;-78
2021/06/04 02:24:23;;;;;;;14.53;4.20;;;;;;;14.76;58.64;100983.84;126319;1096;104188;-78
2021/06/04 02:26:57;;;;;;;9.20;4.07;;;;;;;14.75;58.82;100987.32;126338;1099;104144;-79
2021/06/04 02:29:35;;;;;;;11.15;4.10;;;;;;;14.74;58.83;100996.13;126251;1099;104236;-78
2021/06/04 02:32:13;;;;;;;10.47;4.23;;;;;;;14.72;58.84;100990.80;126324;1097;104236;-77
2021/06/04 02:34:47;;;;;;;8.63;4.13;;;;;;;14.70;58.22;100992.48;126264;1099;104618;-79
2021/06/04 02:37:22;;;;;;;9.97;3.90;;;;;;;14.70;59.18;100997.77;126247;1098;104172;-78
2021/06/04 02:39:57;;;;;;;9.00;3.97;;;;;;;14.70;59.06;100989.84;126235;1099;104229;-77
2021/06/04 02:42:32;;;;;;;8.67;3.53;;;;;;;14.71;58.38;100994.28;126301;1099;104140;-78
2021/06/04 02:45:15;;;;;;;7.33;4.00;;;;;;;14.72;58.21;101004.00;126298;1099;104159;-78
2021/06/04 02:47:48;;;;;;;6.93;3.77;;;;;;;14.72;58.20;100998.72;126305;1099;104142;-78
2021/06/04 02:50:22;;;;;;;8.60;4.17;;;;;;;14.74;59.11;100988.20;126240;1099;104302;-78
2021/06/04 02:52:51;;;;;;;8.07;4.23;;;;;;;14.74;58.25;100994.36;126309;1099;104173;-78
2021/06/04 02:55:30;;;;;;;8.23;3.97;;;;;;;14.75;59.35;101005.81;126284;1099;104331;-77
2021/06/04 02:57:59;;;;;;;13.47;4.00;;;;;;;14.74;58.47;100996.13;126352;1099;104177;-79
2021/06/04 03:00:39;;;;;;;8.33;3.63;;;;;;;14.76;58.51;101004.05;126267;1097;104184;-79
2021/06/04 03:03:10;;;;;;;9.47;4.17;;;;;;;14.76;59.25;101006.70;126287;1099;104223;-80
2021/06/04 03:05:42;;;;;;;9.50;3.90;;;;;;;14.76;58.68;101007.61;126292;1099;104152;-77
2021/06/04 03:08:14;;;;;;;8.37;4.30;;;;;;;14.74;58.54;101010.21;126264;1099;104236;-78
2021/06/04 03:10:47;;;;;;;9.53;3.90;;;;;;;14.77;58.61;101021.70;126259;1099;104188;-78
2021/06/04 03:13:24;;;;;;;9.73;3.77;;;;;;;14.77;58.69;101013.78;126258;1099;104169;-78
2021/06/04 03:15:59;;;;;;;8.57;4.07;;;;;;;14.79;58.66;101023.55;126285;1099;104168;-79
2021/06/04 03:18:34;;;;;;;9.17;4.40;;;;;;;14.82;58.63;101022.70;126294;1098;104242;-78
2021/06/04 03:21:09;;;;;;;12.13;4.20;;;;;;;14.84;59.14;101015.74;126154;1099;104242;-78
2021/06/04 03:23:40;;;;;;;9.40;4.13;;;;;;;14.87;58.70;101014.06;126263;1099;104146;-77
2021/06/04 03:26:17;;;;;;;10.33;4.00;;;;;;;14.89;59.67;101014.98;126316;1099;104295;-79
2021/06/04 03:28:54;;;;;;;6.70;3.80;;;;;;;14.91;59.00;101015.03;126183;1099;104197;-79
2021/06/04 03:31:28;;;;;;;9.03;4.10;;;;;;;14.92;59.35;101012.42;126263;1097;104290;-79
2021/06/04 03:33:59;;;;;;;12.87;4.40;;;;;;;14.94;59.07;101022.16;126325;1099;104612;-78
2021/06/04 03:36:31;;;;;;;8.70;4.60;;;;;;;14.94;59.81;101020.39;126310;1099;104258;-78
2021/06/04 03:39:05;;;;;;;10.17;4.13;;;;;;;14.96;59.48;101013.42;126326;1099;104175;-78
2021/06/04 03:41:39;;;;;;;11.80;4.43;;;;;;;15.00;58.79;101020.55;126239;1098;104169;-78
2021/06/04 03:44:12;;;;;;;11.50;4.43;;;;;;;15.04;59.78;101019.79;126310;1099;104431;-79
2021/06/04 03:46:42;;;;;;;10.65;4.05;;;;;;;15.07;59.68;101016.34;126251;1099;104162;-78
2021/06/04 03:49:16;;;;;;;9.53;4.10;;;;;;;15.09;58.87;101014.62;126295;1099;104149;-78
2021/06/04 03:51:48;;;;;;;14.30;4.40;;;;;;;15.11;59.57;101012.91;126271;1099;104136;-78
2021/06/04 03:54:24;;;;;;;12.97;4.67;;;;;;;15.13;58.95;101019.14;126258;1099;104251;-78
2021/06/04 03:56:56;;;;;;;12.30;4.17;;;;;;;15.13;59.95;101011.22;126292;1099;104178;-80
2021/06/04 03:59:27;;;;;;;11.23;4.10;;;;;;;15.16;59.16;101018.30;126282;1099;104133;-78
2021/06/04 04:02:00;;;;;;;12.60;4.10;;;;;;;15.19;59.97;101015.74;126236;1099;104216;-78
2021/06/04 04:04:30;;;;;;;10.90;3.83;;;;;;;15.23;59.94;101023.79;126321;1099;104133;-78
2021/06/04 04:06:59;;;;;;;11.20;3.93;;;;;;;15.30;59.76;101018.66;126266;1098;104137;-78
2021/06/04 04:09:29;;;;;;;12.40;4.50;;;;;;;15.35;59.81;101025.85;126285;1099;104159;-79
2021/06/04 04:12:00;;;;;;;10.23;4.10;;;;;;;15.40;59.00;101023.33;126201;1099;104279;-77
2021/06/04 04:14:29;;;;;;;10.93;4.23;;;;;;;15.48;59.70;101024.39;126238;1099;104142;-78
2021/06/04 04:16:58;;;;;;;8.33;4.00;;;;;;;15.56;59.48;101016.64;126317;1098;104149;-78
2021/06/04 04:19:28;;;;;;;11.37;4.00;;;;;;;15.62;59.87;101024.72;126257;1099;104316;-77
2021/06/04 04:21:58;;;;;;;12.70;4.40;;;;;;;15.68;59.00;101019.58;126178;1099;103263;-78
2021/06/04 04:24:31;;;;;;;11.80;4.67;;;;;;;15.75;58.92;101031.18;126296;1099;104174;-78
2021/06/04 04:27:02;;;;;;;12.33;4.73;;;;;;;15.78;58.88;101025.99;126290;1099;104143;-78
2021/06/04 04:29:33;;;;;;;9.40;4.70;;;;;;;15.81;58.99;101019.02;126277;1099;104146;-77
2021/06/04 04:32:11;;;;;;;13.00;4.40;;;;;;;15.83;59.82;101024.34;126177;1099;104210;-77
2021/06/04 04:34:43;;;;;;;10.60;4.47;;;;;;;15.88;59.80;101027.09;126248;1099;104155;-78
2021/06/04 04:37:13;;;;;;;11.87;4.87;;;;;;;15.92;58.97;101026.31;126323;1099;104175;-78
2021/06/04 04:39:48;;;;;;;12.80;4.60;;;;;;;15.97;59.46;101022.00;126115;1099;104178;-77
2021/06/04 04:42:20;;;;;;;8.37;4.40;;;;;;;16.05;58.83;101028.38;126237;1099;104210;-78
2021/06/04 04:44:51;;;;;;;11.53;4.23;;;;;;;16.12;59.53;101034.69;126263;1099;104402;-77
2021/06/04 04:47:23;;;;;;;17.20;4.80;;;;;;;16.17;59.45;101023.34;126225;1099;104271;-78
2021/06/04 04:49:53;;;;;;;17.10;4.97;;;;;;;16.24;59.00;101023.48;126213;1099;104171;-77
2021/06/04 04:52:24;;;;;;;13.40;5.07;;;;;;;16.29;59.46;101027.11;126246;1099;104184;-79
2021/06/04 04:54:57;;;;;;;14.30;4.97;;;;;;;16.35;58.96;101037.83;126340;1099;104136;-78
2021/06/04 04:57:29;;;;;;;16.13;5.20;;;;;;;16.40;58.85;101035.27;126290;1099;104322;-78
2021/06/04 05:00:00;;;;;;;14.90;4.50;;;;;;;16.44;59.55;101038.02;126171;1099;104168;-77
2021/06/04 05:02:29;;;;;;;21.53;5.00;;;;;;;16.53;59.67;101035.55;126219;1099;104168;-77
2021/06/04 05:04:58;;;;;;;13.73;4.27;;;;;;;16.63;59.30;101035.73;126238;1099;104168;-78
2021/06/04 05:07:27;;;;;;;12.13;4.63;;;;;;;16.69;59.24;101057.05;126216;1099;104245;-78
2021/06/04 05:09:57;;;;;;;15.60;4.70;;;;;;;16.75;58.82;101037.70;125952;1099;104156;-77
2021/06/04 05:12:30;;;;;;;9.77;4.20;;;;;;;16.79;58.53;101045.74;126107;1099;105350;-77
2021/06/04 05:14:59;;;;;;;10.93;4.50;;;;;;;16.82;58.80;101044.92;126184;1099;104142;-77
2021/06/04 05:17:29;;;;;;;12.77;5.27;;;;;;;16.83;58.80;101042.30;126208;1099;104137;-75
2021/06/04 05:19:59;;;;;;;14.30;4.87;;;;;;;16.83;59.17;101044.95;126117;1099;104187;-77
2021/06/04 05:22:31;;;;;;;11.03;4.50;;;;;;;16.89;59.04;101046.83;125926;1100;104201;-77
2021/06/04 05:25:04;;;;;;;19.50;5.47;;;;;;;16.94;58.60;101050.48;126102;1099;104201;-77
2021/06/04 05:27:35;;;;;;;13.75;4.80;;;;;;;17.00;58.79;101058.55;126076;1099;104168;-77
2021/06/04 05:30:10;;;;;;;17.17;5.50;;;;;;;17.05;58.77;101058.64;126026;1099;104131;-77
2021/06/04 05:32:42;;;;;;;18.97;5.87;;;;;;;17.13;58.54;101050.82;125856;1099;104204;-78
2021/06/04 05:35:14;;;;;;;14.27;4.73;;;;;;;17.27;58.86;101051.95;125993;1099;104174;-78
2021/06/04 05:37:44;;;;;;;19.53;5.23;;;;;;;17.41;58.81;101050.41;126179;1098;104140;-76
2021/06/04 05:40:17;;;;;;;14.20;4.80;;;;;;;17.56;59.06;101048.86;126197;1098;105309;-76
2021/06/04 05:42:47;;;;;;;18.40;5.70;;;;;;;17.71;58.63;101054.41;125925;1099;104216;-77
2021/06/04 05:45:21;;;;;;;17.73;5.13;;;;;;;17.85;58.47;101064.35;125974;1099;104296;-76
2021/06/04 05:47:50;;;;;;;;;;;;;;;17.97;58.36;101064.56;126117;1099;104347;-78
2021/06/04 05:50:25;;;;;;;15.20;4.97;;;;;;;18.09;58.25;101071.80;126032;1099;104216;-79
2021/06/04 05:52:55;;;;;;;13.33;4.40;;;;;;;18.17;58.25;101066.59;125859;1099;104207;-78
2021/06/04 05:55:30;;;;;;;12.00;4.63;;;;;;;18.26;58.37;101069.38;125875;1099;104325;-79
2021/06/04 05:58:02;;;;;;;11.87;4.50;;;;;;;18.37;57.90;101066.86;125973;1099;104172;-77
2021/06/04 06:00:36;;;;;;;9.97;3.83;;;;;;;18.44;56.88;101071.39;125919;1099;104313;-78
2021/06/04 06:03:11;;;;;;;10.30;4.53;;;;;;;18.49;57.79;101075.86;125950;1099;104168;-76
2021/06/04 06:05:40;;;;;;;7.90;3.60;;;;;;;18.57;56.41;101075.96;125952;1099;104387;-78
2021/06/04 06:08:10;;;;;;;9.47;4.27;;;;;;;18.63;56.47;101081.35;125893;1099;104213;-77
2021/06/04 06:10:41;;;;;;;7.97;3.90;;;;;;;18.73;56.49;101076.14;125864;1099;104226;-79
2021/06/04 06:13:10;;;;;;;11.97;4.30;;;;;;;18.84;55.85;101080.75;126038;1098;104587;-78
2021/06/04 06:15:43;;;;;;;8.90;4.20;;;;;;;18.92;56.13;101069.32;126031;1099;104153;-77
2021/06/04 06:18:13;;;;;;;11.03;4.40;;;;;;;18.98;56.32;101077.33;126167;1099;105442;-77
2021/06/04 06:20:44;;;;;;;9.13;4.27;;;;;;;19.10;56.15;101077.45;126135;1097;104141;-77
2021/06/04 06:23:18;;;;;;;10.75;4.35;;;;;;;19.16;55.59;101071.31;126031;1099;104290;-79
2021/06/04 06:25:55;;;;;;;7.33;4.00;;;;;;;19.21;55.40;101070.49;125908;1099;107726;-78
2021/06/04 06:28:30;;;;;;;11.97;4.20;;;;;;;19.29;55.95;101078.55;126013;1099;104166;-76
2021/06/04 06:31:01;;;;;;;12.10;4.13;;;;;;;19.27;55.18;101072.30;126069;1098;104230;-78
2021/06/04 06:33:32;;;;;;;9.27;4.17;;;;;;;19.22;54.74;101080.23;126122;1099;104206;-77
2021/06/04 06:36:09;;;;;;;8.33;4.00;;;;;;;19.20;54.65;101076.67;126093;1099;118565;-77
2021/06/04 06:38:41;;;;;;;9.37;4.30;;;;;;;19.20;54.74;101086.44;126159;1099;104285;-77
2021/06/04 06:41:15;;;;;;;9.67;4.10;;;;;;;19.25;54.07;101084.70;126183;1099;104142;-76
2021/06/04 06:43:47;;;;;;;7.40;3.80;;;;;;;19.32;54.40;101083.89;126114;1099;104191;-77
2021/06/04 06:46:23;;;;;;;9.20;3.97;;;;;;;19.41;54.44;101085.72;126195;1099;104332;-78
2021/06/04 06:48:55;;;;;;;10.40;4.33;;;;;;;19.44;54.38;101084.87;126197;1099;104214;-78
2021/06/04 06:51:29;;;;;;;8.40;4.17;;;;;;;19.52;53.93;101085.81;126129;1099;104249;-77
2021/06/04 06:53:57;;;;;;;;;;;;;;;19.61;52.52;101082.34;126213;1099;104219;-76
2021/06/04 06:56:28;;;;;;;8.10;4.07;;;;;;;19.68;53.18;101079.75;125954;1099;104137;-78
2021/06/04 06:59:00;;;;;;;8.33;4.27;;;;;;;19.77;53.44;101080.72;126177;1099;104175;-79
2021/06/04 07:01:31;;;;;;;9.27;3.93;;;;;;;19.85;52.67;101079.91;126017;1099;104153;-78
2021/06/04 07:04:04;;;;;;;10.43;4.47;;;;;;;19.99;52.74;101085.33;126043;1099;104310;-79
2021/06/04 07:06:38;;;;;;;9.85;3.70;;;;;;;20.14;51.92;101089.83;126060;1099;104271;-79
2021/06/04 07:09:14;;;;;;;8.15;3.55;;;;;;;20.27;51.74;101086.36;126163;1099;104267;-78
2021/06/04 07:11:56;;;;;;;12.47;4.10;;;;;;;20.41;52.29;101078.44;126162;1099;104149;-79
2021/06/04 07:14:39;;;;;;;7.87;3.83;;;;;;;20.61;52.19;101088.27;126109;1099;104268;-77
2021/06/04 07:17:13;;;;;;;6.87;3.40;;;;;;;20.83;51.35;101084.84;126153;1099;107588;-80
2021/06/04 07:19:46;;;;;;;7.90;3.40;;;;;;;20.98;51.00;101086.64;126212;1099;104175;-78
2021/06/04 07:22:16;;;;;;;7.53;3.60;;;;;;;21.17;50.92;101082.21;126221;1099;104630;-78
2021/06/04 07:24:48;;;;;;;9.83;3.40;;;;;;;21.31;49.89;101073.34;126306;1099;104153;-78
2021/06/04 07:27:19;;;;;;;10.73;3.50;;;;;;;21.36;50.94;101076.89;126214;1097;104358;-77
2021/06/04 07:29:51;;;;;;;8.17;3.60;;;;;;;21.49;50.11;101076.05;126235;1099;104128;-77
2021/06/04 07:32:20;;;;;;;9.70;3.70;;;;;;;21.69;50.14;101083.14;126113;1099;104129;-75
2021/06/04 07:34:51;;;;;;;7.83;3.73;;;;;;;21.86;49.54;101078.69;126173;1099;104173;-78
2021/06/04 07:37:22;;;;;;;9.33;3.93;;;;;;;21.97;49.56;101076.00;126099;1099;104139;-77
2021/06/04 07:39:55;;;;;;;11.80;3.70;;;;;;;22.08;49.60;101084.87;126184;1099;104227;-77
2021/06/04 07:42:28;;;;;;;7.00;3.27;;;;;;;22.21;48.45;101077.70;126140;1099;104153;-80
2021/06/04 07:44:59;;;;;;;9.70;3.75;;;;;;;22.33;47.78;101082.16;126141;1099;104179;-77
2021/06/04 07:47:30;;;;;;;9.67;3.80;;;;;;;22.37;47.85;101080.36;125988;1099;104127;-77
2021/06/04 07:50:03;;;;;;;6.20;3.73;;;;;;;22.34;47.84;101075.91;126203;1099;104182;-78
2021/06/04 07:52:36;;;;;;;8.45;3.80;;;;;;;22.32;47.84;101076.83;126070;1097;104143;-79
2021/06/04 07:55:18;;;;;;;8.95;3.50;;;;;;;22.29;47.04;101084.82;126158;1099;104235;-79
2021/06/04 07:58:01;;;;;;;6.30;3.63;;;;;;;22.29;46.65;101083.03;126107;1099;104140;-78
2021/06/04 08:00:42;;;;;;;4.97;3.10;;;;;;;22.36;47.08;101079.48;126209;1099;104567;-79
2021/06/04 08:03:17;;;;;;;14.07;3.50;;;;;;;22.52;46.04;101085.65;126188;1099;104137;-80
2021/06/04 08:05:56;;;;;;;6.93;3.40;;;;;;;22.68;46.32;101069.53;126125;1099;104198;-77
2021/06/04 08:08:26;;;;;;;7.60;3.35;;;;;;;22.74;45.82;101072.17;126207;1097;108108;-77
2021/06/04 08:10:58;;;;;;;6.77;2.90;;;;;;;22.87;45.12;101075.66;126245;1099;104184;-77
2021/06/04 08:13:31;;;;;;;8.33;2.90;;;;;;;23.07;44.49;101071.06;126253;1099;104294;-80
2021/06/04 08:16:05;;;;;;;9.23;3.50;;;;;;;23.35;44.71;101072.70;126141;1099;104140;-76
2021/06/04 08:18:37;;;;;;;5.87;3.10;;;;;;;23.49;43.32;101087.73;126114;1099;104316;-76
2021/06/04 08:21:10;;;;;;;9.87;3.70;;;;;;;23.30;44.05;101076.28;126063;1099;104188;-77
2021/06/04 08:23:45;;;;;;;7.10;3.10;;;;;;;23.14;43.94;101069.29;126129;1099;104329;-77
2021/06/04 08:26:19;;;;;;;7.33;3.00;;;;;;;23.25;43.14;101079.88;126100;1099;104322;-75
2021/06/04 08:28:48;;;;;;;4.03;3.10;;;;;;;23.16;42.30;101078.19;126019;1098;104579;-76
2021/06/04 08:31:22;;;;;;;6.50;3.17;;;;;;;22.98;41.97;101071.13;126008;1099;104255;-75
2021/06/04 08:33:51;;;;;;;;;;;;;;;22.78;41.60;101073.91;126096;1099;105426;-74
2021/06/04 08:36:24;;;;;;;4.67;2.90;;;;;;;22.82;43.38;101072.13;126129;1098;104665;-76
2021/06/04 08:38:56;;;;;;;9.63;3.02;;;;;;;22.90;42.01;101079.20;126065;1099;109861;-76
2021/06/04 08:41:37;;;;;;;7.43;3.00;;;;;;;23.01;41.45;101078.25;126104;1099;104204;-76
2021/06/04 08:44:24;;;;;;;8.00;3.17;;;;;;;23.08;41.80;101066.62;126100;1099;104347;-75
2021/06/04 08:46:58;;;;;;;5.37;2.80;;;;;;;23.12;41.93;101069.30;126066;1099;104319;-75
2021/06/04 08:49:39;;;;;;;6.37;2.90;;;;;;;23.01;40.62;101068.42;126181;1099;104134;-75
2021/06/04 08:52:18;;;;;;;14.27;3.13;;;;;;;22.84;41.16;101073.00;126181;1099;104239;-76
2021/06/04 08:54:59;;;;;;;8.80;3.27;;;;;;;22.70;41.31;101071.28;126270;1098;104133;-78
2021/06/04 08:57:47;;;;;;;5.73;2.90;;;;;;;22.62;41.07;101075.78;126223;1099;104184;-77
2021/06/04 09:00:20;;;;;;;8.70;3.00;;;;;;;22.65;41.10;101080.25;126173;1098;104264;-76
2021/06/04 09:02:59;;;;;;;7.70;2.87;;;;;;;22.73;41.63;101067.71;126193;1098;104194;-75
2021/06/04 09:05:38;;;;;;;12.37;3.00;;;;;;;22.82;40.96;101078.36;126079;1099;104233;-76
2021/06/04 09:08:14;;;;;;;12.40;3.50;;;;;;;23.06;40.59;101071.07;126002;1099;104198;-78
2021/06/04 09:10:50;;;;;;;5.53;2.90;;;;;;;23.05;40.26;101069.31;126036;1099;104209;-78
2021/06/04 09:13:23;;;;;;;6.43;2.80;;;;;;;23.02;40.03;101067.54;125881;1099;104389;-77
2021/06/04 09:16:00;;;;;;;8.83;3.25;;;;;;;23.01;40.14;101063.07;126075;1099;104194;-77
2021/06/04 09:18:38;;;;;;;8.27;3.20;;;;;;;22.90;38.92;101071.17;126054;1099;104142;-77
2021/06/04 09:21:15;;;;;;;10.13;3.20;;;;;;;22.82;39.76;101070.34;125985;1099;104152;-75
2021/06/04 09:23:45;;;;;;;4.33;2.50;;;;;;;22.72;38.91;101073.95;126152;1099;104229;-75
2021/06/04 09:26:17;;;;;;;6.67;2.90;;;;;;;22.63;38.44;101092.75;126125;1099;104443;-76
2021/06/04 09:28:49;;;;;;;5.97;3.00;;;;;;;22.53;38.46;101084.77;126113;1099;104146;-76
2021/06/04 09:31:27;;;;;;;5.77;2.77;;;;;;;22.52;38.70;101092.80;126090;1097;104277;-77
2021/06/04 09:34:10;;;;;;;7.80;3.13;;;;;;;22.59;38.51;101087.41;126099;1099;104143;-77
2021/06/04 09:36:49;;;;;;;6.80;3.17;;;;;;;22.70;39.02;101078.42;126131;1099;104300;-80
2021/06/04 09:39:27;;;;;;;9.13;3.40;;;;;;;22.85;38.78;101078.34;126057;1099;104176;-79
2021/06/04 09:42:07;;;;;;;7.60;3.10;;;;;;;22.94;38.61;101082.77;126180;1099;104239;-78
2021/06/04 09:44:48;;;;;;;7.37;3.03;;;;;;;23.10;38.85;101070.20;126145;1099;104172;-77
2021/06/04 09:47:32;;;;;;;8.67;3.30;;;;;;;23.24;38.11;101072.77;126157;1099;104168;-77
2021/06/04 09:50:16;;;;;;;6.80;3.10;;;;;;;23.30;38.79;101065.58;126224;1099;104175;-76
2021/06/04 09:53:03;;;;;;;7.40;2.90;;;;;;;23.37;38.05;101068.20;126109;1099;104303;-76
2021/06/04 09:55:35;;;;;;;9.03;3.50;;;;;;;23.48;38.55;101068.99;126229;1099;104213;-77
2021/06/04 09:58:21;;;;;;;6.47;2.90;;;;;;;23.58;38.50;101067.14;126258;1099;104188;-77
2021/06/04 10:01:07;;;;;;;12.73;3.33;;;;;;;23.57;38.33;101071.59;126164;1098;106514;-77
2021/06/04 10:03:46;;;;;;;6.20;2.80;;;;;;;23.45;37.75;101067.25;125996;1099;104277;-77
2021/06/04 10:06:35;;;;;;;7.37;2.97;;;;;;;23.31;37.41;101067.36;125976;1099;104331;-75
2021/06/04 10:09:21;;;;;;;4.80;3.00;;;;;;;23.12;36.69;101077.33;125885;1099;104178;-75
2021/06/04 10:11:58;;;;;;;5.77;2.87;;;;;;;23.08;37.60;101072.88;125866;1099;104328;-76
2021/06/04 10:14:53;;;;;;;5.93;2.97;;;;;;;23.07;37.33;101064.83;125856;1099;104281;-77
2021/06/04 10:17:40;;;;;;;6.37;3.07;;;;;;;23.11;37.57;101067.51;125940;1098;104216;-78
2021/06/04 10:20:32;;;;;;;7.23;3.20;;;;;;;23.15;36.89;101066.59;125827;1099;104166;-78
2021/06/04 10:23:11;;;;;;;5.83;2.90;;;;;;;23.21;37.25;101056.73;126108;1099;104261;-76
2021/06/04 10:25:48;;;;;;;6.40;3.03;;;;;;;23.29;36.87;101055.75;126123;1099;104171;-77
2021/06/04 10:28:36;;;;;;;7.63;3.37;;;;;;;23.29;37.36;101063.78;126035;1099;104679;-80
2021/06/04 10:31:27;;;;;;;12.70;3.27;;;;;;;23.33;37.29;101060.20;126017;1099;104275;-78
2021/06/04 10:34:22;;;;;;;12.00;3.20;;;;;;;23.51;36.82;101058.25;126063;1099;104168;-77
2021/06/04 10:36:59;;;;;;;4.47;2.63;;;;;;;23.71;36.70;101062.55;126150;1099;104163;-76
2021/06/04 10:39:35;;;;;;;8.13;3.10;;;;;;;23.79;36.67;101061.55;126134;1099;104217;-77
2021/06/04 10:42:18;;;;;;;7.93;3.23;;;;;;;23.65;36.89;101061.72;126217;1098;104239;-77
2021/06/04 10:45:02;;;;;;;6.00;3.27;;;;;;;23.50;37.04;101059.17;126099;1097;104191;-79
2021/06/04 10:47:48;;;;;;;6.50;3.20;;;;;;;23.27;36.31;101067.40;126147;1099;104152;-78
2021/06/04 10:50:23;;;;;;;9.63;3.80;;;;;;;22.97;36.69;101064.02;126037;1099;104188;-76
2021/06/04 10:53:03;;;;;;;11.90;3.70;;;;;;;22.77;36.47;101072.16;126274;1099;104191;-77
2021/06/04 10:55:39;;;;;;;6.10;3.07;;;;;;;22.55;36.66;101068.71;126017;1099;105181;-77
2021/06/04 10:58:25;;;;;;;4.97;3.03;;;;;;;22.37;36.18;101075.89;126129;1099;104222;-78
2021/06/04 11:01:00;;;;;;;7.17;3.20;;;;;;;22.20;36.92;101072.36;126057;1099;104711;-78
2021/06/04 11:03:39;;;;;;;9.67;3.00;;;;;;;22.06;36.33;101075.98;126162;1099;104206;-77
2021/06/04 11:06:16;;;;;;;7.53;3.60;;;;;;;21.88;36.75;101076.02;126135;1099;104238;-79
2021/06/04 11:09:02;;;;;;;5.27;3.27;;;;;;;21.77;36.95;101076.03;126182;1099;104201;-78
2021/06/04 11:11:52;;;;;;;8.83;3.63;;;;;;;21.73;37.39;101076.92;125208;1099;105995;-79
2021/06/04 11:14:42;;;;;;;10.33;3.63;;;;;;;21.78;36.80;101069.78;125989;1099;104347;-77
2021/06/04 11:17:23;;;;;;;12.17;3.83;;;;;;;21.84;36.96;101072.44;126009;1099;104303;-78
2021/06/04 11:19:58;;;;;;;7.70;3.70;;;;;;;21.94;37.56;101073.34;126047;1099;104387;-76
2021/06/04 11:22:36;;;;;;;7.47;3.70;;;;;;;22.06;37.75;101080.41;125904;1099;105532;-77
2021/06/04 11:25:17;;;;;;;7.67;3.53;;;;;;;22.18;37.17;101067.02;125883;1098;104849;-80
2021/06/04 11:27:55;;;;;;;7.10;3.77;;;;;;;22.25;36.98;101073.23;125873;1099;104430;-79
2021/06/04 11:30:30;;;;;;;11.17;3.60;;;;;;;22.35;37.02;101068.80;126025;1099;104363;-79
2021/06/04 11:33:08;;;;;;;9.57;3.80;;;;;;;22.46;37.02;101064.28;125993;1099;109473;-78
2021/06/04 11:35:46;;;;;;;12.10;3.37;;;;;;;22.74;37.28;101064.15;126173;1099;104315;-80
2021/06/04 11:38:23;;;;;;;7.83;3.60;;;;;;;22.98;37.17;101053.30;125936;1099;104198;-78
2021/06/04 11:40:58;;;;;;;10.23;3.50;;;;;;;23.13;36.69;101046.96;125873;1099;104287;-79
2021/06/04 11:43:31;;;;;;;5.63;3.10;;;;;;;23.20;36.88;101045.11;125778;1099;104198;-79